sensor_id;sensor_type;location;lat;lon;timestamp;pressure;altitude;pressure_sealevel;temperature;humidity
67517;BME280;54359;59.124;37.910;2022-12-31T00:02:26;99239.72;;;-2.73;82.89
67517;BME280;54359;59.124;37.910;2022-12-31T00:04:53;99234.06;;;-2.69;82.37
67517;BME280;54359;59.124;37.910;2022-12-31T00:07:19;99239.94;;;-2.68;82.66
67517;BME280;54359;59.124;37.910;2022-12-31T00:09:45;99233.25;;;-2.68;82.70
67517;BME280;54359;59.124;37.910;2022-12-31T00:12:10;99227.28;;;-2.70;82.43
67517;BME280;54359;59.124;37.910;2022-12-31T00:14:36;99238.50;;;-2.63;82.00
67517;BME280;54359;59.124;37.910;2022-12-31T00:17:02;99231.84;;;-2.63;82.58
67517;BME280;54359;59.124;37.910;2022-12-31T00:19:28;99237.88;;;-2.59;82.21
67517;BME280;54359;59.124;37.910;2022-12-31T00:21:55;99225.25;;;-2.60;82.86
67517;BME280;54359;59.124;37.910;2022-12-31T00:24:22;99224.53;;;-2.58;82.91
67517;BME280;54359;59.124;37.910;2022-12-31T00:26:48;99231.59;;;-2.51;82.88
67517;BME280;54359;59.124;37.910;2022-12-31T00:29:14;99227.78;;;-2.43;82.21
67517;BME280;54359;59.124;37.910;2022-12-31T00:31:40;99228.81;;;-2.39;81.91
67517;BME280;54359;59.124;37.910;2022-12-31T00:34:06;99222.75;;;-2.43;82.58
67517;BME280;54359;59.124;37.910;2022-12-31T00:36:34;99227.75;;;-2.44;82.38
67517;BME280;54359;59.124;37.910;2022-12-31T00:39:02;99222.47;;;-2.49;82.53
67517;BME280;54359;59.124;37.910;2022-12-31T00:41:30;99240.53;;;-2.39;82.41
67517;BME280;54359;59.124;37.910;2022-12-31T00:43:56;99236.38;;;-2.39;82.72
67517;BME280;54359;59.124;37.910;2022-12-31T00:46:22;99240.53;;;-2.39;82.34
67517;BME280;54359;59.124;37.910;2022-12-31T00:48:49;99230.41;;;-2.41;82.15
67517;BME280;54359;59.124;37.910;2022-12-31T00:51:18;99216.34;;;-2.54;82.90
67517;BME280;54359;59.124;37.910;2022-12-31T00:53:44;99231.97;;;-2.43;82.60
67517;BME280;54359;59.124;37.910;2022-12-31T00:56:17;99233.41;;;-2.48;82.54
67517;BME280;54359;59.124;37.910;2022-12-31T00:58:43;99235.03;;;-2.49;82.84
67517;BME280;54359;59.124;37.910;2022-12-31T01:01:17;99235.13;;;-2.47;82.36
67517;BME280;54359;59.124;37.910;2022-12-31T01:03:44;99243.78;;;-2.42;82.64
67517;BME280;54359;59.124;37.910;2022-12-31T01:06:11;99249.59;;;-2.43;82.00
67517;BME280;54359;59.124;37.910;2022-12-31T01:08:37;99247.94;;;-2.43;82.55
67517;BME280;54359;59.124;37.910;2022-12-31T01:11:03;99243.53;;;-2.47;82.67
67517;BME280;54359;59.124;37.910;2022-12-31T01:13:52;99247.88;;;-2.44;82.51
67517;BME280;54359;59.124;37.910;2022-12-31T01:16:24;99248.56;;;-2.47;82.72
67517;BME280;54359;59.124;37.910;2022-12-31T01:18:51;99254.53;;;-2.45;82.66
67517;BME280;54359;59.124;37.910;2022-12-31T01:21:18;99238.34;;;-2.50;82.26
67517;BME280;54359;59.124;37.910;2022-12-31T01:23:45;99255.25;;;-2.47;82.55
67517;BME280;54359;59.124;37.910;2022-12-31T01:26:12;99245.75;;;-2.53;82.14
67517;BME280;54359;59.124;37.910;2022-12-31T01:28:39;99255.13;;;-2.50;82.46
67517;BME280;54359;59.124;37.910;2022-12-31T01:31:08;99235.53;;;-2.56;82.91
67517;BME280;54359;59.124;37.910;2022-12-31T01:33:34;99244.34;;;-2.48;83.22
67517;BME280;54359;59.124;37.910;2022-12-31T01:36:02;99253.34;;;-2.35;82.90
67517;BME280;54359;59.124;37.910;2022-12-31T01:38:28;99263.63;;;-2.30;82.53
67517;BME280;54359;59.124;37.910;2022-12-31T01:40:55;99262.16;;;-2.27;82.62
67517;BME280;54359;59.124;37.910;2022-12-31T01:43:21;99260.56;;;-2.25;82.78
67517;BME280;54359;59.124;37.910;2022-12-31T01:45:51;99265.06;;;-2.19;82.61
67517;BME280;54359;59.124;37.910;2022-12-31T01:48:24;99261.09;;;-2.14;82.54
67517;BME280;54359;59.124;37.910;2022-12-31T01:50:52;99260.41;;;-2.11;82.41
67517;BME280;54359;59.124;37.910;2022-12-31T01:53:21;99255.38;;;-2.11;82.09
67517;BME280;54359;59.124;37.910;2022-12-31T01:55:54;99260.41;;;-2.11;82.13
67517;BME280;54359;59.124;37.910;2022-12-31T01:58:26;99262.31;;;-2.06;82.44
67517;BME280;54359;59.124;37.910;2022-12-31T02:00:52;99269.31;;;-2.00;82.28
67517;BME280;54359;59.124;37.910;2022-12-31T02:03:20;99260.19;;;-1.98;82.40
67517;BME280;54359;59.124;37.910;2022-12-31T02:08:19;99265.44;;;-1.93;82.62
67517;BME280;54359;59.124;37.910;2022-12-31T02:10:46;99274.09;;;-1.88;82.40
67517;BME280;54359;59.124;37.910;2022-12-31T02:13:12;99269.78;;;-1.91;82.32
67517;BME280;54359;59.124;37.910;2022-12-31T02:15:55;99281.75;;;-1.87;82.50
67517;BME280;54359;59.124;37.910;2022-12-31T02:32:47;99280.06;;;-1.86;82.35
67517;BME280;54359;59.124;37.910;2022-12-31T02:35:23;99282.69;;;-1.85;82.40
67517;BME280;54359;59.124;37.910;2022-12-31T02:37:57;99287.75;;;-1.83;82.61
67517;BME280;54359;59.124;37.910;2022-12-31T02:40:25;99296.50;;;-1.76;82.92
67517;BME280;54359;59.124;37.910;2022-12-31T02:42:52;99292.47;;;-1.73;82.81
67517;BME280;54359;59.124;37.910;2022-12-31T02:45:22;99283.09;;;-1.75;82.75
67517;BME280;54359;59.124;37.910;2022-12-31T02:50:48;99295.34;;;-1.65;82.85
67517;BME280;54359;59.124;37.910;2022-12-31T02:59:41;99289.75;;;-1.59;82.59
67517;BME280;54359;59.124;37.910;2022-12-31T03:02:29;99291.88;;;-1.67;82.15
67517;BME280;54359;59.124;37.910;2022-12-31T03:05:00;99294.13;;;-1.73;82.78
67517;BME280;54359;59.124;37.910;2022-12-31T03:07:30;99290.66;;;-1.75;82.92
67517;BME280;54359;59.124;37.910;2022-12-31T03:09:59;99291.38;;;-1.78;82.75
67517;BME280;54359;59.124;37.910;2022-12-31T03:12:28;99300.81;;;-1.74;82.32
67517;BME280;54359;59.124;37.910;2022-12-31T03:15:25;99305.06;;;-1.73;82.85
67517;BME280;54359;59.124;37.910;2022-12-31T03:20:27;99309.69;;;-1.64;82.91
67517;BME280;54359;59.124;37.910;2022-12-31T03:23:12;99317.38;;;-1.61;83.07
67517;BME280;54359;59.124;37.910;2022-12-31T03:25:38;99315.81;;;-1.59;82.61
67517;BME280;54359;59.124;37.910;2022-12-31T03:28:08;99326.91;;;-1.55;82.94
67517;BME280;54359;59.124;37.910;2022-12-31T03:30:35;99332.03;;;-1.54;83.04
67517;BME280;54359;59.124;37.910;2022-12-31T03:33:02;99325.41;;;-1.52;83.38
67517;BME280;54359;59.124;37.910;2022-12-31T03:35:30;99333.94;;;-1.48;82.66
67517;BME280;54359;59.124;37.910;2022-12-31T03:37:58;99330.66;;;-1.47;82.78
67517;BME280;54359;59.124;37.910;2022-12-31T03:40:27;99335.59;;;-1.49;82.90
67517;BME280;54359;59.124;37.910;2022-12-31T03:42:55;99344.09;;;-1.47;82.70
67517;BME280;54359;59.124;37.910;2022-12-31T03:45:22;99336.53;;;-1.47;82.81
67517;BME280;54359;59.124;37.910;2022-12-31T03:47:48;99335.59;;;-1.49;82.35
67517;BME280;54359;59.124;37.910;2022-12-31T03:50:15;99339.00;;;-1.48;82.67
67517;BME280;54359;59.124;37.910;2022-12-31T03:52:42;99335.69;;;-1.47;82.57
67517;BME280;54359;59.124;37.910;2022-12-31T03:55:10;99344.19;;;-1.45;82.68
67517;BME280;54359;59.124;37.910;2022-12-31T03:57:36;99343.38;;;-1.44;82.74
67517;BME280;54359;59.124;37.910;2022-12-31T04:00:04;99346.53;;;-1.48;82.90
67517;BME280;54359;59.124;37.910;2022-12-31T04:02:31;99343.81;;;-1.53;82.77
67517;BME280;54359;59.124;37.910;2022-12-31T04:04:56;99338.41;;;-1.60;82.67
67517;BME280;54359;59.124;37.910;2022-12-31T04:07:25;99357.13;;;-1.55;82.97
67517;BME280;54359;59.124;37.910;2022-12-31T04:09:51;99362.81;;;-1.59;82.77
67517;BME280;54359;59.124;37.910;2022-12-31T04:12:17;99368.88;;;-1.56;82.67
67517;BME280;54359;59.124;37.910;2022-12-31T04:14:43;99371.97;;;-1.62;83.01
67517;BME280;54359;59.124;37.910;2022-12-31T04:17:09;99384.56;;;-1.62;82.55
67517;BME280;54359;59.124;37.910;2022-12-31T04:19:36;99387.00;;;-1.63;82.73
67517;BME280;54359;59.124;37.910;2022-12-31T04:22:02;99373.38;;;-1.67;82.79
67517;BME280;54359;59.124;37.910;2022-12-31T04:24:29;99385.19;;;-1.66;82.88
67517;BME280;54359;59.124;37.910;2022-12-31T04:26:55;99388.56;;;-1.65;82.90
67517;BME280;54359;59.124;37.910;2022-12-31T04:29:21;99379.94;;;-1.70;82.88
67517;BME280;54359;59.124;37.910;2022-12-31T04:31:47;99388.56;;;-1.65;82.69
67517;BME280;54359;59.124;37.910;2022-12-31T04:34:13;99404.63;;;-1.63;82.55
67517;BME280;54359;59.124;37.910;2022-12-31T04:36:42;99404.72;;;-1.62;82.78
67517;BME280;54359;59.124;37.910;2022-12-31T04:39:08;99394.16;;;-1.71;82.49
67517;BME280;54359;59.124;37.910;2022-12-31T04:41:34;99399.59;;;-1.63;82.49
67517;BME280;54359;59.124;37.910;2022-12-31T04:44:00;99388.50;;;-1.67;82.31
67517;BME280;54359;59.124;37.910;2022-12-31T04:46:29;99402.19;;;-1.62;82.62
67517;BME280;54359;59.124;37.910;2022-12-31T04:48:55;99392.13;;;-1.62;82.61
67517;BME280;54359;59.124;37.910;2022-12-31T04:51:23;99394.00;;;-1.57;82.54
67517;BME280;54359;59.124;37.910;2022-12-31T04:53:49;99384.41;;;-1.65;83.03
67517;BME280;54359;59.124;37.910;2022-12-31T04:56:15;99405.25;;;-1.51;82.80
67517;BME280;54359;59.124;37.910;2022-12-31T04:58:44;99402.06;;;-1.47;83.05
67517;BME280;54359;59.124;37.910;2022-12-31T05:01:11;99400.50;;;-1.45;82.69
67517;BME280;54359;59.124;37.910;2022-12-31T05:03:37;99400.59;;;-1.43;83.19
67517;BME280;54359;59.124;37.910;2022-12-31T05:06:14;99404.97;;;-1.39;82.90
67517;BME280;54359;59.124;37.910;2022-12-31T05:08:42;99402.38;;;-1.40;82.92
67517;BME280;54359;59.124;37.910;2022-12-31T05:11:09;99411.09;;;-1.34;82.88
67517;BME280;54359;59.124;37.910;2022-12-31T05:13:35;99408.44;;;-1.37;82.78
67517;BME280;54359;59.124;37.910;2022-12-31T05:16:03;99412.38;;;-1.42;82.71
67517;BME280;54359;59.124;37.910;2022-12-31T05:18:30;99411.53;;;-1.43;82.86
67517;BME280;54359;59.124;37.910;2022-12-31T05:20:56;99409.09;;;-1.41;82.64
67517;BME280;54359;59.124;37.910;2022-12-31T05:23:22;99421.69;;;-1.41;83.03
67517;BME280;54359;59.124;37.910;2022-12-31T05:25:49;99410.59;;;-1.45;82.69
67517;BME280;54359;59.124;37.910;2022-12-31T05:28:18;99413.25;;;-1.42;83.12
67517;BME280;54359;59.124;37.910;2022-12-31T05:30:47;99416.66;;;-1.41;82.68
67517;BME280;54359;59.124;37.910;2022-12-31T05:33:15;99419.16;;;-1.41;82.74
67517;BME280;54359;59.124;37.910;2022-12-31T05:35:43;99415.84;;;-1.40;82.83
67517;BME280;54359;59.124;37.910;2022-12-31T05:38:10;99421.03;;;-1.37;82.55
67517;BME280;54359;59.124;37.910;2022-12-31T05:40:37;99418.34;;;-1.40;82.79
67517;BME280;54359;59.124;37.910;2022-12-31T05:43:05;99414.13;;;-1.41;82.71
67517;BME280;54359;59.124;37.910;2022-12-31T05:45:37;99414.41;;;-1.35;82.82
67517;BME280;54359;59.124;37.910;2022-12-31T05:48:12;99426.31;;;-1.32;82.51
67517;BME280;54359;59.124;37.910;2022-12-31T05:50:38;99440.94;;;-1.25;82.80
67517;BME280;54359;59.124;37.910;2022-12-31T05:53:04;99443.47;;;-1.25;82.96
67517;BME280;54359;59.124;37.910;2022-12-31T05:55:31;99427.16;;;-1.32;82.70
67517;BME280;54359;59.124;37.910;2022-12-31T05:57:57;99438.34;;;-1.27;82.61
67517;BME280;54359;59.124;37.910;2022-12-31T06:00:23;99447.56;;;-1.27;82.81
67517;BME280;54359;59.124;37.910;2022-12-31T06:02:49;99444.25;;;-1.26;82.73
67517;BME280;54359;59.124;37.910;2022-12-31T06:05:15;99434.03;;;-1.29;82.66
67517;BME280;54359;59.124;37.910;2022-12-31T06:07:42;99444.47;;;-1.22;82.94
67517;BME280;54359;59.124;37.910;2022-12-31T06:10:08;99446.28;;;-1.19;82.66
67517;BME280;54359;59.124;37.910;2022-12-31T06:12:35;99442.09;;;-1.18;82.61
67517;BME280;54359;59.124;37.910;2022-12-31T06:15:01;99449.09;;;-1.13;82.49
67517;BME280;54359;59.124;37.910;2022-12-31T06:17:29;99449.09;;;-1.13;83.12
67517;BME280;54359;59.124;37.910;2022-12-31T06:19:58;99461.13;;;-1.07;83.00
67517;BME280;54359;59.124;37.910;2022-12-31T06:22:26;99454.00;;;-1.16;83.07
67517;BME280;54359;59.124;37.910;2022-12-31T06:24:52;99467.84;;;-1.08;83.04
67517;BME280;54359;59.124;37.910;2022-12-31T06:27:18;99467.91;;;-1.06;83.22
67517;BME280;54359;59.124;37.910;2022-12-31T06:29:44;99469.88;;;-1.00;83.01
67517;BME280;54359;59.124;37.910;2022-12-31T06:32:10;99469.16;;;-0.98;83.28
67517;BME280;54359;59.124;37.910;2022-12-31T06:34:37;99475.22;;;-0.94;83.23
67517;BME280;54359;59.124;37.910;2022-12-31T06:37:03;99471.81;;;-0.95;82.97
67517;BME280;54359;59.124;37.910;2022-12-31T06:39:29;99476.00;;;-0.95;82.96
67517;BME280;54359;59.124;37.910;2022-12-31T06:41:56;99476.72;;;-0.98;82.97
67517;BME280;54359;59.124;37.910;2022-12-31T06:44:24;99472.44;;;-0.99;83.02
67517;BME280;54359;59.124;37.910;2022-12-31T06:46:52;99474.31;;;-0.95;83.21
67517;BME280;54359;59.124;37.910;2022-12-31T06:49:20;99459.84;;;-0.99;83.01
67517;BME280;54359;59.124;37.910;2022-12-31T06:51:45;99474.56;;;-0.90;82.81
67517;BME280;54359;59.124;37.910;2022-12-31T06:54:14;99474.63;;;-0.89;82.95
67517;BME280;54359;59.124;37.910;2022-12-31T06:56:43;99488.25;;;-0.85;83.01
67517;BME280;54359;59.124;37.910;2022-12-31T06:59:21;99479.66;;;-0.89;83.05
67517;BME280;54359;59.124;37.910;2022-12-31T07:02:18;99486.59;;;-0.85;83.05
67517;BME280;54359;59.124;37.910;2022-12-31T07:08:01;99487.81;;;-0.76;83.04
67517;BME280;54359;59.124;37.910;2022-12-31T07:21:40;99505.91;;;-0.85;83.40
67517;BME280;54359;59.124;37.910;2022-12-31T07:24:10;99512.75;;;-0.83;83.28
67517;BME280;54359;59.124;37.910;2022-12-31T07:33:36;99512.19;;;-0.77;83.72
67517;BME280;54359;59.124;37.910;2022-12-31T07:36:12;99526.34;;;-0.63;83.39
67517;BME280;54359;59.124;37.910;2022-12-31T07:44:23;99516.25;;;-0.45;83.58
67517;BME280;54359;59.124;37.910;2022-12-31T07:47:03;99513.81;;;-0.43;83.65
67517;BME280;54359;59.124;37.910;2022-12-31T07:49:32;99478.31;;;-0.64;83.39
67517;BME280;54359;59.124;37.910;2022-12-31T07:52:02;99488.63;;;-0.59;82.91
67517;BME280;54359;59.124;37.910;2022-12-31T07:54:28;99507.53;;;-0.51;83.08
67517;BME280;54359;59.124;37.910;2022-12-31T07:56:55;99514.94;;;-0.54;83.19
67517;BME280;54359;59.124;37.910;2022-12-31T08:02:17;99505.13;;;-0.48;83.27
67517;BME280;54359;59.124;37.910;2022-12-31T08:12:44;99470.16;;;-0.41;83.71
67517;BME280;54359;59.124;37.910;2022-12-31T08:15:16;99465.03;;;-0.42;83.70
67517;BME280;54359;59.124;37.910;2022-12-31T08:17:44;99499.53;;;-0.23;83.51
67517;BME280;54359;59.124;37.910;2022-12-31T08:20:18;99506.53;;;-0.17;83.54
67517;BME280;54359;59.124;37.910;2022-12-31T08:23:08;99502.78;;;-0.08;84.02
67517;BME280;54359;59.124;37.910;2022-12-31T08:26:08;99498.34;;;0.06;83.35
67517;BME280;54359;59.124;37.910;2022-12-31T08:29:48;99475.47;;;0.03;83.67
67517;BME280;54359;59.124;37.910;2022-12-31T08:32:04;99493.22;;;0.24;83.67
67517;BME280;54359;59.124;37.910;2022-12-31T08:35:02;99495.91;;;0.27;83.24
67517;BME280;54359;59.124;37.910;2022-12-31T08:37:43;99489.09;;;0.26;83.52
67517;BME280;54359;59.124;37.910;2022-12-31T08:40:36;99464.22;;;0.16;83.35
67517;BME280;54359;59.124;37.910;2022-12-31T08:45:55;99472.03;;;0.21;83.48
67517;BME280;54359;59.124;37.910;2022-12-31T08:48:40;99464.50;;;0.22;83.58
67517;BME280;54359;59.124;37.910;2022-12-31T08:51:21;99491.44;;;0.41;83.96
67517;BME280;54359;59.124;37.910;2022-12-31T08:53:48;99484.03;;;0.46;83.69
67517;BME280;54359;59.124;37.910;2022-12-31T08:56:39;99436.56;;;0.19;83.30
67517;BME280;54359;59.124;37.910;2022-12-31T09:08:55;99446.28;;;0.29;83.26
67517;BME280;54359;59.124;37.910;2022-12-31T09:11:27;99466.47;;;0.49;83.29
67517;BME280;54359;59.124;37.910;2022-12-31T09:20:26;99469.75;;;0.67;83.57
67517;BME280;54359;59.124;37.910;2022-12-31T09:22:54;99447.63;;;0.62;83.56
67517;BME280;54359;59.124;37.910;2022-12-31T09:25:25;99453.63;;;0.64;83.83
67517;BME280;54359;59.124;37.910;2022-12-31T09:30:24;99427.75;;;0.30;83.36
67517;BME280;54359;59.124;37.910;2022-12-31T09:33:06;99474.00;;;0.47;83.43
67517;BME280;54359;59.124;37.910;2022-12-31T09:35:54;99497.69;;;0.49;83.47
67517;BME280;54359;59.124;37.910;2022-12-31T09:38:47;99490.38;;;0.36;82.97
67517;BME280;54359;59.124;37.910;2022-12-31T09:50:25;99503.94;;;0.18;83.25
67517;BME280;54359;59.124;37.910;2022-12-31T09:53:23;99498.66;;;0.14;82.83
67517;BME280;54359;59.124;37.910;2022-12-31T09:56:01;99493.50;;;0.11;82.74
67517;BME280;54359;59.124;37.910;2022-12-31T09:58:50;99447.59;;;-0.18;83.30
67517;BME280;54359;59.124;37.910;2022-12-31T10:07:18;99482.56;;;0.12;83.46
67517;BME280;54359;59.124;37.910;2022-12-31T10:10:15;99445.88;;;0.01;83.43
67517;BME280;54359;59.124;37.910;2022-12-31T10:16:08;99468.59;;;0.20;83.76
67517;BME280;54359;59.124;37.910;2022-12-31T10:18:54;99466.75;;;0.16;83.54
67517;BME280;54359;59.124;37.910;2022-12-31T10:38:51;99479.59;;;0.21;83.51
67517;BME280;54359;59.124;37.910;2022-12-31T10:55:50;99503.31;;;0.24;83.43
67517;BME280;54359;59.124;37.910;2022-12-31T11:13:32;99502.75;;;0.30;83.37
67517;BME280;54359;59.124;37.910;2022-12-31T11:16:38;99513.94;;;0.35;83.18
67517;BME280;54359;59.124;37.910;2022-12-31T11:19:20;99500.09;;;0.27;83.37
67517;BME280;54359;59.124;37.910;2022-12-31T11:21:53;99512.38;;;0.38;84.03
67517;BME280;54359;59.124;37.910;2022-12-31T11:30:37;99517.50;;;0.40;83.55
67517;BME280;54359;59.124;37.910;2022-12-31T11:38:51;99496.44;;;0.39;83.77
67517;BME280;54359;59.124;37.910;2022-12-31T11:41:56;99484.31;;;0.32;83.88
67517;BME280;54359;59.124;37.910;2022-12-31T11:44:54;99505.28;;;0.49;83.64
67517;BME280;54359;59.124;37.910;2022-12-31T11:50:22;99514.72;;;0.53;84.13
67517;BME280;54359;59.124;37.910;2022-12-31T11:56:06;99500.47;;;0.55;83.55
67517;BME280;54359;59.124;37.910;2022-12-31T11:58:36;99510.03;;;0.63;83.71
67517;BME280;54359;59.124;37.910;2022-12-31T12:01:13;99509.38;;;0.67;84.03
67517;BME280;54359;59.124;37.910;2022-12-31T12:03:42;99505.31;;;0.70;84.10
67517;BME280;54359;59.124;37.910;2022-12-31T12:06:14;99508.28;;;0.81;84.05
67517;BME280;54359;59.124;37.910;2022-12-31T12:08:41;99502.47;;;0.84;83.88
67517;BME280;54359;59.124;37.910;2022-12-31T12:11:25;99505.25;;;0.90;83.61
67517;BME280;54359;59.124;37.910;2022-12-31T12:13:52;99502.72;;;0.90;83.67
67517;BME280;54359;59.124;37.910;2022-12-31T12:16:20;99512.31;;;0.97;83.89
67517;BME280;54359;59.124;37.910;2022-12-31T12:19:14;99508.25;;;1.00;83.88
67517;BME280;54359;59.124;37.910;2022-12-31T12:21:44;99489.47;;;0.95;83.86
67517;BME280;54359;59.124;37.910;2022-12-31T12:24:21;99500.91;;;1.07;84.21
67517;BME280;54359;59.124;37.910;2022-12-31T12:26:49;99499.06;;;1.03;83.76
67517;BME280;54359;59.124;37.910;2022-12-31T12:29:32;99493.34;;;1.08;83.80
67517;BME280;54359;59.124;37.910;2022-12-31T12:32:21;99502.78;;;1.11;84.01
67517;BME280;54359;59.124;37.910;2022-12-31T12:34:50;99489.13;;;1.07;83.56
67517;BME280;54359;59.124;37.910;2022-12-31T12:37:30;99494.53;;;1.16;84.13
67517;BME280;54359;59.124;37.910;2022-12-31T12:40:21;99495.66;;;1.23;84.56
67517;BME280;54359;59.124;37.910;2022-12-31T12:42:52;99486.50;;;1.27;84.19
67517;BME280;54359;59.124;37.910;2022-12-31T12:45:24;99478.97;;;1.28;84.11
67517;BME280;54359;59.124;37.910;2022-12-31T12:47:59;99470.59;;;1.29;83.81
67517;BME280;54359;59.124;37.910;2022-12-31T12:50:43;99474.91;;;1.32;84.26
67517;BME280;54359;59.124;37.910;2022-12-31T12:53:42;99474.16;;;1.34;84.18
67517;BME280;54359;59.124;37.910;2022-12-31T13:01:55;99464.31;;;1.42;84.02
67517;BME280;54359;59.124;37.910;2022-12-31T13:04:50;99458.56;;;1.46;84.34
67517;BME280;54359;59.124;37.910;2022-12-31T13:10:50;99453.59;;;1.49;84.55
67517;BME280;54359;59.124;37.910;2022-12-31T13:13:30;99466.47;;;1.54;84.58
67517;BME280;54359;59.124;37.910;2022-12-31T13:24:20;99438.38;;;1.48;84.66
67517;BME280;54359;59.124;37.910;2022-12-31T13:27:29;99427.25;;;1.44;84.30
67517;BME280;54359;59.124;37.910;2022-12-31T13:30:02;99423.91;;;1.45;84.11
67517;BME280;54359;59.124;37.910;2022-12-31T13:33:11;99435.88;;;1.49;84.36
67517;BME280;54359;59.124;37.910;2022-12-31T13:35:33;99443.69;;;1.54;84.36
67517;BME280;54359;59.124;37.910;2022-12-31T13:38:08;99437.00;;;1.56;84.64
67517;BME280;54359;59.124;37.910;2022-12-31T13:40:45;99452.06;;;1.53;83.88
67517;BME280;54359;59.124;37.910;2022-12-31T13:46:21;99437.09;;;1.36;83.91
67517;BME280;54359;59.124;37.910;2022-12-31T13:48:57;99437.00;;;1.33;83.85
67517;BME280;54359;59.124;37.910;2022-12-31T13:52:00;99446.19;;;1.31;84.08
67517;BME280;54359;59.124;37.910;2022-12-31T14:00:31;99430.22;;;1.11;83.89
67517;BME280;54359;59.124;37.910;2022-12-31T14:05:55;99426.03;;;1.12;84.59
67517;BME280;54359;59.124;37.910;2022-12-31T14:08:23;99385.56;;;0.91;83.86
67517;BME280;54359;59.124;37.910;2022-12-31T14:16:52;99426.78;;;1.09;84.02
67517;BME280;54359;59.124;37.910;2022-12-31T14:25:26;99417.69;;;0.93;83.73
67517;BME280;54359;59.124;37.910;2022-12-31T14:27:55;99374.66;;;0.71;84.06
67517;BME280;54359;59.124;37.910;2022-12-31T14:30:34;99409.31;;;0.94;84.08
67517;BME280;54359;59.124;37.910;2022-12-31T14:33:12;99370.44;;;0.71;84.11
67517;BME280;54359;59.124;37.910;2022-12-31T14:49:45;99433.25;;;0.82;83.81
67517;BME280;54359;59.124;37.910;2022-12-31T14:54:41;99444.88;;;0.76;84.24
67517;BME280;54359;59.124;37.910;2022-12-31T14:57:24;99448.25;;;0.77;84.38
67517;BME280;54359;59.124;37.910;2022-12-31T14:59:53;99439.72;;;0.75;84.50
67517;BME280;54359;59.124;37.910;2022-12-31T15:02:32;99438.03;;;0.74;84.40
67517;BME280;54359;59.124;37.910;2022-12-31T15:05:20;99446.31;;;0.71;84.49
67517;BME280;54359;59.124;37.910;2022-12-31T15:10:21;99428.56;;;0.70;84.61
67517;BME280;54359;59.124;37.910;2022-12-31T15:13:50;99434.66;;;0.75;84.36
67517;BME280;54359;59.124;37.910;2022-12-31T15:16:24;99433.75;;;0.73;84.07
67517;BME280;54359;59.124;37.910;2022-12-31T15:24:21;99409.47;;;0.57;84.19
67517;BME280;54359;59.124;37.910;2022-12-31T15:26:53;99393.28;;;0.52;84.27
67517;BME280;54359;59.124;37.910;2022-12-31T15:29:43;99411.97;;;0.55;84.53
67517;BME280;54359;59.124;37.910;2022-12-31T15:32:19;99407.63;;;0.53;84.67
67517;BME280;54359;59.124;37.910;2022-12-31T15:35:03;99392.16;;;0.45;83.99
67517;BME280;54359;59.124;37.910;2022-12-31T15:37:33;99395.38;;;0.41;84.15
67517;BME280;54359;59.124;37.910;2022-12-31T15:42:45;99383.41;;;0.37;84.19
67517;BME280;54359;59.124;37.910;2022-12-31T15:45:20;99378.47;;;0.40;84.70
67517;BME280;54359;59.124;37.910;2022-12-31T15:47:53;99370.56;;;0.32;84.67
67517;BME280;54359;59.124;37.910;2022-12-31T15:50:22;99397.09;;;0.42;84.32
67517;BME280;54359;59.124;37.910;2022-12-31T15:52:59;99398.63;;;0.38;84.52
67517;BME280;54359;59.124;37.910;2022-12-31T15:55:46;99413.84;;;0.40;84.67
67517;BME280;54359;59.124;37.910;2022-12-31T15:58:16;99396.03;;;0.37;84.58
67517;BME280;54359;59.124;37.910;2022-12-31T16:01:23;99404.75;;;0.44;84.39
67517;BME280;54359;59.124;37.910;2022-12-31T16:03:58;99393.81;;;0.45;84.71
67517;BME280;54359;59.124;37.910;2022-12-31T16:06:31;99356.88;;;0.27;84.26
67517;BME280;54359;59.124;37.910;2022-12-31T16:08:58;99376.13;;;0.45;84.69
67517;BME280;54359;59.124;37.910;2022-12-31T16:11:24;99371.88;;;0.44;84.20
67517;BME280;54359;59.124;37.910;2022-12-31T16:13:53;99359.09;;;0.40;84.67
67517;BME280;54359;59.124;37.910;2022-12-31T16:16:24;99351.16;;;0.31;84.52
67517;BME280;54359;59.124;37.910;2022-12-31T16:18:50;99356.38;;;0.36;84.57
67517;BME280;54359;59.124;37.910;2022-12-31T16:21:33;99359.16;;;0.42;85.01
67517;BME280;54359;59.124;37.910;2022-12-31T16:24:05;99375.41;;;0.47;84.90
67517;BME280;54359;59.124;37.910;2022-12-31T16:26:42;99373.53;;;0.43;84.94
67517;BME280;54359;59.124;37.910;2022-12-31T16:29:14;99364.41;;;0.47;85.00
67517;BME280;54359;59.124;37.910;2022-12-31T16:31:48;99358.41;;;0.45;84.56
67517;BME280;54359;59.124;37.910;2022-12-31T16:34:17;99344.81;;;0.41;84.77
67517;BME280;54359;59.124;37.910;2022-12-31T16:36:54;99354.19;;;0.44;85.06
67517;BME280;54359;59.124;37.910;2022-12-31T16:39:22;99352.50;;;0.44;84.87
67517;BME280;54359;59.124;37.910;2022-12-31T16:41:49;99355.78;;;0.42;85.00
67517;BME280;54359;59.124;37.910;2022-12-31T16:44:42;99357.69;;;0.47;84.50
67517;BME280;54359;59.124;37.910;2022-12-31T16:47:11;99344.16;;;0.47;84.96
67517;BME280;54359;59.124;37.910;2022-12-31T16:49:40;99345.00;;;0.46;84.54
67517;BME280;54359;59.124;37.910;2022-12-31T16:52:24;99351.22;;;0.54;84.61
67517;BME280;54359;59.124;37.910;2022-12-31T16:54:55;99345.41;;;0.56;84.69
67517;BME280;54359;59.124;37.910;2022-12-31T16:57:24;99332.78;;;0.56;84.88
67517;BME280;54359;59.124;37.910;2022-12-31T16:59:54;99331.97;;;0.57;85.00
67517;BME280;54359;59.124;37.910;2022-12-31T17:02:26;99333.19;;;0.67;84.63
67517;BME280;54359;59.124;37.910;2022-12-31T17:04:54;99327.19;;;0.65;84.54
67517;BME280;54359;59.124;37.910;2022-12-31T17:12:40;99344.47;;;0.75;84.54
67517;BME280;54359;59.124;37.910;2022-12-31T17:15:06;99332.56;;;0.73;84.33
67517;BME280;54359;59.124;37.910;2022-12-31T17:17:41;99342.00;;;0.77;84.74
67517;BME280;54359;59.124;37.910;2022-12-31T17:20:07;99342.00;;;0.77;84.71
67517;BME280;54359;59.124;37.910;2022-12-31T17:22:43;99325.81;;;0.72;84.75
67517;BME280;54359;59.124;37.910;2022-12-31T17:25:21;99316.53;;;0.72;85.07
67517;BME280;54359;59.124;37.910;2022-12-31T17:28:24;99304.19;;;0.80;84.65
67517;BME280;54359;59.124;37.910;2022-12-31T17:30:51;99302.53;;;0.80;84.86